sensor_id;sensor_type;location;lat;lon;timestamp;P1;durP1;ratioP1;P2;durP2;ratioP2
22026;SDS011;11177;50.966;10.070;2023-04-21T00:00:51;52.38;;;30.70;;
22026;SDS011;11177;50.966;10.070;2023-04-21T00:03:19;52.65;;;31.80;;
22026;SDS011;11177;50.966;10.070;2023-04-21T00:05:48;57.38;;;31.45;;
22026;SDS011;11177;50.966;10.070;2023-04-21T00:08:16;51.78;;;30.35;;
22026;SDS011;11177;50.966;10.070;2023-04-21T00:10:44;51.08;;;29.63;;
22026;SDS011;11177;50.966;10.070;2023-04-21T00:13:12;49.03;;;29.30;;
22026;SDS011;11177;50.966;10.070;2023-04-21T00:15:40;50.58;;;29.80;;
22026;SDS011;11177;50.966;10.070;2023-04-21T00:18:07;51.78;;;29.60;;
22026;SDS011;11177;50.966;10.070;2023-04-21T00:20:35;51.88;;;30.10;;
22026;SDS011;11177;50.966;10.070;2023-04-21T00:23:02;52.60;;;30.98;;
22026;SDS011;11177;50.966;10.070;2023-04-21T00:25:29;50.85;;;29.52;;
22026;SDS011;11177;50.966;10.070;2023-04-21T00:27:56;49.05;;;28.58;;
22026;SDS011;11177;50.966;10.070;2023-04-21T00:30:23;52.50;;;28.25;;
22026;SDS011;11177;50.966;10.070;2023-04-21T00:32:50;52.33;;;30.52;;
22026;SDS011;11177;50.966;10.070;2023-04-21T00:35:17;49.40;;;29.15;;
22026;SDS011;11177;50.966;10.070;2023-04-21T00:37:44;50.22;;;29.77;;
22026;SDS011;11177;50.966;10.070;2023-04-21T00:40:11;53.38;;;29.60;;
22026;SDS011;11177;50.966;10.070;2023-04-21T00:42:39;51.47;;;30.77;;
22026;SDS011;11177;50.966;10.070;2023-04-21T00:45:06;50.90;;;29.63;;
22026;SDS011;11177;50.966;10.070;2023-04-21T00:47:33;48.70;;;29.55;;
22026;SDS011;11177;50.966;10.070;2023-04-21T00:50:01;50.30;;;30.38;;
22026;SDS011;11177;50.966;10.070;2023-04-21T00:52:28;54.22;;;31.05;;
22026;SDS011;11177;50.966;10.070;2023-04-21T00:54:55;52.50;;;30.30;;
22026;SDS011;11177;50.966;10.070;2023-04-21T00:57:22;51.65;;;30.02;;
22026;SDS011;11177;50.966;10.070;2023-04-21T00:59:49;52.22;;;30.05;;
22026;SDS011;11177;50.966;10.070;2023-04-21T01:02:17;51.03;;;29.42;;
22026;SDS011;11177;50.966;10.070;2023-04-21T01:04:44;52.63;;;30.25;;
22026;SDS011;11177;50.966;10.070;2023-04-21T01:07:11;49.70;;;28.40;;
22026;SDS011;11177;50.966;10.070;2023-04-21T01:09:38;49.63;;;28.92;;
22026;SDS011;11177;50.966;10.070;2023-04-21T01:12:09;50.25;;;29.70;;
22026;SDS011;11177;50.966;10.070;2023-04-21T01:17:06;50.20;;;28.17;;
22026;SDS011;11177;50.966;10.070;2023-04-21T01:19:35;51.88;;;29.45;;
22026;SDS011;11177;50.966;10.070;2023-04-21T01:22:07;48.80;;;28.25;;
22026;SDS011;11177;50.966;10.070;2023-04-21T01:24:38;52.58;;;30.05;;
22026;SDS011;11177;50.966;10.070;2023-04-21T01:27:08;51.25;;;28.90;;
22026;SDS011;11177;50.966;10.070;2023-04-21T01:29:37;47.53;;;28.65;;
22026;SDS011;11177;50.966;10.070;2023-04-21T01:32:07;50.38;;;29.52;;
22026;SDS011;11177;50.966;10.070;2023-04-21T01:34:35;51.67;;;29.95;;
22026;SDS011;11177;50.966;10.070;2023-04-21T01:37:05;51.22;;;29.67;;
22026;SDS011;11177;50.966;10.070;2023-04-21T01:39:33;51.60;;;29.52;;
22026;SDS011;11177;50.966;10.070;2023-04-21T01:42:00;52.00;;;30.90;;
22026;SDS011;11177;50.966;10.070;2023-04-21T01:44:27;54.33;;;29.13;;
22026;SDS011;11177;50.966;10.070;2023-04-21T01:46:53;54.03;;;30.83;;
22026;SDS011;11177;50.966;10.070;2023-04-21T01:49:21;49.85;;;30.55;;
22026;SDS011;11177;50.966;10.070;2023-04-21T01:51:48;55.03;;;30.23;;
22026;SDS011;11177;50.966;10.070;2023-04-21T01:54:14;52.95;;;29.85;;
22026;SDS011;11177;50.966;10.070;2023-04-21T01:56:41;51.00;;;29.05;;
22026;SDS011;11177;50.966;10.070;2023-04-21T01:59:08;50.97;;;29.25;;
22026;SDS011;11177;50.966;10.070;2023-04-21T02:01:35;52.10;;;29.40;;
22026;SDS011;11177;50.966;10.070;2023-04-21T02:04:03;52.80;;;29.70;;
22026;SDS011;11177;50.966;10.070;2023-04-21T02:06:32;55.83;;;30.75;;
22026;SDS011;11177;50.966;10.070;2023-04-21T02:08:59;53.97;;;30.48;;
22026;SDS011;11177;50.966;10.070;2023-04-21T02:11:25;52.40;;;30.17;;
22026;SDS011;11177;50.966;10.070;2023-04-21T02:13:52;53.10;;;29.65;;
22026;SDS011;11177;50.966;10.070;2023-04-21T02:16:20;52.60;;;30.52;;
22026;SDS011;11177;50.966;10.070;2023-04-21T02:18:55;54.88;;;29.83;;
22026;SDS011;11177;50.966;10.070;2023-04-21T02:21:22;54.60;;;28.95;;
22026;SDS011;11177;50.966;10.070;2023-04-21T02:23:50;51.60;;;27.95;;
22026;SDS011;11177;50.966;10.070;2023-04-21T02:26:17;52.67;;;28.73;;
22026;SDS011;11177;50.966;10.070;2023-04-21T02:28:45;49.40;;;27.92;;
22026;SDS011;11177;50.966;10.070;2023-04-21T02:31:12;50.67;;;28.55;;
22026;SDS011;11177;50.966;10.070;2023-04-21T02:33:39;53.30;;;29.05;;
22026;SDS011;11177;50.966;10.070;2023-04-21T02:36:07;53.40;;;27.42;;
22026;SDS011;11177;50.966;10.070;2023-04-21T02:38:34;56.08;;;28.55;;
22026;SDS011;11177;50.966;10.070;2023-04-21T02:41:01;49.65;;;28.60;;
22026;SDS011;11177;50.966;10.070;2023-04-21T02:43:28;50.85;;;28.08;;
22026;SDS011;11177;50.966;10.070;2023-04-21T02:45:55;54.00;;;29.45;;
22026;SDS011;11177;50.966;10.070;2023-04-21T02:48:22;55.13;;;29.83;;
22026;SDS011;11177;50.966;10.070;2023-04-21T02:50:49;52.75;;;29.80;;
22026;SDS011;11177;50.966;10.070;2023-04-21T02:53:16;57.65;;;31.17;;
22026;SDS011;11177;50.966;10.070;2023-04-21T02:55:43;53.65;;;29.13;;
22026;SDS011;11177;50.966;10.070;2023-04-21T02:58:10;58.03;;;30.92;;
22026;SDS011;11177;50.966;10.070;2023-04-21T03:00:36;53.25;;;29.08;;
22026;SDS011;11177;50.966;10.070;2023-04-21T03:03:03;53.17;;;29.50;;
22026;SDS011;11177;50.966;10.070;2023-04-21T03:05:30;58.47;;;32.08;;
22026;SDS011;11177;50.966;10.070;2023-04-21T03:07:57;52.33;;;29.77;;
22026;SDS011;11177;50.966;10.070;2023-04-21T03:10:24;52.10;;;30.73;;
22026;SDS011;11177;50.966;10.070;2023-04-21T03:12:51;56.13;;;30.05;;
22026;SDS011;11177;50.966;10.070;2023-04-21T03:15:19;52.42;;;29.73;;
22026;SDS011;11177;50.966;10.070;2023-04-21T03:17:46;50.42;;;28.45;;
22026;SDS011;11177;50.966;10.070;2023-04-21T03:20:13;53.15;;;29.05;;
22026;SDS011;11177;50.966;10.070;2023-04-21T03:22:41;49.70;;;27.75;;
22026;SDS011;11177;50.966;10.070;2023-04-21T03:25:08;50.25;;;28.65;;
22026;SDS011;11177;50.966;10.070;2023-04-21T03:27:35;50.20;;;28.60;;
22026;SDS011;11177;50.966;10.070;2023-04-21T03:30:01;51.92;;;28.75;;
22026;SDS011;11177;50.966;10.070;2023-04-21T03:32:28;50.55;;;27.83;;
22026;SDS011;11177;50.966;10.070;2023-04-21T03:34:55;54.88;;;28.13;;
22026;SDS011;11177;50.966;10.070;2023-04-21T03:37:22;48.63;;;27.95;;
22026;SDS011;11177;50.966;10.070;2023-04-21T03:39:49;51.38;;;28.60;;
22026;SDS011;11177;50.966;10.070;2023-04-21T03:42:16;48.90;;;27.30;;
22026;SDS011;11177;50.966;10.070;2023-04-21T03:44:43;48.63;;;28.20;;
22026;SDS011;11177;50.966;10.070;2023-04-21T03:47:16;48.97;;;27.87;;
22026;SDS011;11177;50.966;10.070;2023-04-21T03:49:43;46.25;;;28.13;;
22026;SDS011;11177;50.966;10.070;2023-04-21T03:52:10;48.88;;;28.13;;
22026;SDS011;11177;50.966;10.070;2023-04-21T03:54:37;47.40;;;28.40;;
22026;SDS011;11177;50.966;10.070;2023-04-21T03:57:04;44.70;;;26.45;;
22026;SDS011;11177;50.966;10.070;2023-04-21T03:59:31;48.67;;;27.70;;
22026;SDS011;11177;50.966;10.070;2023-04-21T04:01:58;48.53;;;26.10;;
22026;SDS011;11177;50.966;10.070;2023-04-21T04:04:25;45.67;;;26.90;;
22026;SDS011;11177;50.966;10.070;2023-04-21T04:06:52;45.45;;;26.88;;
22026;SDS011;11177;50.966;10.070;2023-04-21T04:09:19;47.92;;;27.48;;
22026;SDS011;11177;50.966;10.070;2023-04-21T04:11:46;48.42;;;27.88;;
22026;SDS011;11177;50.966;10.070;2023-04-21T04:14:13;48.47;;;27.58;;
22026;SDS011;11177;50.966;10.070;2023-04-21T04:16:40;47.22;;;26.73;;
22026;SDS011;11177;50.966;10.070;2023-04-21T04:19:07;48.67;;;28.20;;
22026;SDS011;11177;50.966;10.070;2023-04-21T04:21:34;44.95;;;26.48;;
22026;SDS011;11177;50.966;10.070;2023-04-21T04:24:01;46.88;;;26.73;;
22026;SDS011;11177;50.966;10.070;2023-04-21T04:26:28;44.92;;;26.90;;
22026;SDS011;11177;50.966;10.070;2023-04-21T04:28:55;46.88;;;25.58;;
22026;SDS011;11177;50.966;10.070;2023-04-21T04:31:22;49.50;;;26.75;;
22026;SDS011;11177;50.966;10.070;2023-04-21T04:33:51;49.45;;;27.15;;
22026;SDS011;11177;50.966;10.070;2023-04-21T04:36:21;46.47;;;26.42;;
22026;SDS011;11177;50.966;10.070;2023-04-21T04:38:48;48.15;;;26.38;;
22026;SDS011;11177;50.966;10.070;2023-04-21T04:41:15;43.85;;;26.63;;
22026;SDS011;11177;50.966;10.070;2023-04-21T04:43:42;45.97;;;27.10;;
22026;SDS011;11177;50.966;10.070;2023-04-21T04:46:09;46.15;;;26.58;;
22026;SDS011;11177;50.966;10.070;2023-04-21T04:48:38;45.17;;;27.25;;
22026;SDS011;11177;50.966;10.070;2023-04-21T04:51:05;45.00;;;26.05;;
22026;SDS011;11177;50.966;10.070;2023-04-21T04:53:33;48.03;;;26.08;;
22026;SDS011;11177;50.966;10.070;2023-04-21T04:56:00;43.58;;;25.45;;
22026;SDS011;11177;50.966;10.070;2023-04-21T04:58:27;45.67;;;25.95;;
22026;SDS011;11177;50.966;10.070;2023-04-21T05:00:54;44.03;;;25.20;;
22026;SDS011;11177;50.966;10.070;2023-04-21T05:03:21;44.65;;;25.98;;
22026;SDS011;11177;50.966;10.070;2023-04-21T05:05:48;43.85;;;25.85;;
22026;SDS011;11177;50.966;10.070;2023-04-21T05:08:15;46.85;;;26.35;;
22026;SDS011;11177;50.966;10.070;2023-04-21T05:10:43;44.60;;;26.30;;
22026;SDS011;11177;50.966;10.070;2023-04-21T05:13:10;46.53;;;26.48;;
22026;SDS011;11177;50.966;10.070;2023-04-21T05:15:38;48.40;;;26.70;;
22026;SDS011;11177;50.966;10.070;2023-04-21T05:18:05;43.17;;;25.70;;
22026;SDS011;11177;50.966;10.070;2023-04-21T05:20:33;46.17;;;26.73;;
22026;SDS011;11177;50.966;10.070;2023-04-21T05:22:59;44.53;;;26.75;;
22026;SDS011;11177;50.966;10.070;2023-04-21T05:25:26;42.72;;;25.85;;
22026;SDS011;11177;50.966;10.070;2023-04-21T05:27:53;43.90;;;26.17;;
22026;SDS011;11177;50.966;10.070;2023-04-21T05:30:21;42.85;;;25.75;;
22026;SDS011;11177;50.966;10.070;2023-04-21T05:32:48;42.85;;;25.33;;
22026;SDS011;11177;50.966;10.070;2023-04-21T05:35:15;44.13;;;24.73;;
22026;SDS011;11177;50.966;10.070;2023-04-21T05:37:42;39.88;;;25.67;;
22026;SDS011;11177;50.966;10.070;2023-04-21T05:40:09;44.35;;;24.88;;
22026;SDS011;11177;50.966;10.070;2023-04-21T05:42:36;43.30;;;24.52;;
22026;SDS011;11177;50.966;10.070;2023-04-21T05:45:04;41.53;;;25.23;;
22026;SDS011;11177;50.966;10.070;2023-04-21T05:47:31;44.38;;;24.40;;
22026;SDS011;11177;50.966;10.070;2023-04-21T05:49:58;41.85;;;25.20;;
22026;SDS011;11177;50.966;10.070;2023-04-21T05:52:25;40.95;;;24.70;;
22026;SDS011;11177;50.966;10.070;2023-04-21T05:54:52;38.55;;;22.73;;
22026;SDS011;11177;50.966;10.070;2023-04-21T05:57:19;41.10;;;24.50;;
22026;SDS011;11177;50.966;10.070;2023-04-21T05:59:46;43.80;;;23.80;;
22026;SDS011;11177;50.966;10.070;2023-04-21T06:02:13;37.13;;;22.95;;
22026;SDS011;11177;50.966;10.070;2023-04-21T06:04:40;38.25;;;23.55;;
22026;SDS011;11177;50.966;10.070;2023-04-21T06:07:07;38.88;;;22.85;;
22026;SDS011;11177;50.966;10.070;2023-04-21T06:09:36;40.83;;;22.85;;
22026;SDS011;11177;50.966;10.070;2023-04-21T06:12:04;38.15;;;22.08;;
22026;SDS011;11177;50.966;10.070;2023-04-21T06:14:31;40.10;;;22.67;;
22026;SDS011;11177;50.966;10.070;2023-04-21T06:16:58;34.45;;;22.58;;
22026;SDS011;11177;50.966;10.070;2023-04-21T06:19:25;38.55;;;22.67;;
22026;SDS011;11177;50.966;10.070;2023-04-21T06:21:52;37.83;;;22.88;;
22026;SDS011;11177;50.966;10.070;2023-04-21T06:24:19;37.97;;;22.17;;
22026;SDS011;11177;50.966;10.070;2023-04-21T06:26:51;34.15;;;21.38;;
22026;SDS011;11177;50.966;10.070;2023-04-21T06:29:18;36.92;;;20.92;;
22026;SDS011;11177;50.966;10.070;2023-04-21T06:31:46;36.13;;;21.85;;
22026;SDS011;11177;50.966;10.070;2023-04-21T06:34:13;36.47;;;22.20;;
22026;SDS011;11177;50.966;10.070;2023-04-21T06:36:40;34.03;;;21.70;;
22026;SDS011;11177;50.966;10.070;2023-04-21T06:39:08;37.05;;;21.27;;
22026;SDS011;11177;50.966;10.070;2023-04-21T06:41:35;34.33;;;21.85;;
22026;SDS011;11177;50.966;10.070;2023-04-21T06:44:01;34.83;;;20.88;;
22026;SDS011;11177;50.966;10.070;2023-04-21T06:46:28;38.70;;;22.33;;
22026;SDS011;11177;50.966;10.070;2023-04-21T06:48:55;38.45;;;21.00;;
22026;SDS011;11177;50.966;10.070;2023-04-21T06:51:22;35.55;;;21.02;;
22026;SDS011;11177;50.966;10.070;2023-04-21T06:53:49;31.50;;;20.58;;
22026;SDS011;11177;50.966;10.070;2023-04-21T06:56:17;32.72;;;20.67;;
22026;SDS011;11177;50.966;10.070;2023-04-21T06:58:43;35.42;;;21.35;;
22026;SDS011;11177;50.966;10.070;2023-04-21T07:01:12;35.08;;;21.77;;
22026;SDS011;11177;50.966;10.070;2023-04-21T07:03:39;34.30;;;21.38;;
22026;SDS011;11177;50.966;10.070;2023-04-21T07:06:07;33.60;;;19.17;;
22026;SDS011;11177;50.966;10.070;2023-04-21T07:08:34;33.25;;;21.20;;
22026;SDS011;11177;50.966;10.070;2023-04-21T07:11:01;32.28;;;20.13;;
22026;SDS011;11177;50.966;10.070;2023-04-21T07:13:28;32.83;;;21.15;;
22026;SDS011;11177;50.966;10.070;2023-04-21T07:15:55;33.45;;;18.50;;
22026;SDS011;11177;50.966;10.070;2023-04-21T07:18:22;28.58;;;18.33;;
22026;SDS011;11177;50.966;10.070;2023-04-21T07:20:48;31.83;;;18.88;;
22026;SDS011;11177;50.966;10.070;2023-04-21T07:23:16;31.05;;;19.40;;
22026;SDS011;11177;50.966;10.070;2023-04-21T07:25:43;29.30;;;18.98;;
22026;SDS011;11177;50.966;10.070;2023-04-21T07:28:10;29.25;;;18.40;;
22026;SDS011;11177;50.966;10.070;2023-04-21T07:30:36;32.22;;;18.88;;
22026;SDS011;11177;50.966;10.070;2023-04-21T07:33:03;30.15;;;18.42;;
22026;SDS011;11177;50.966;10.070;2023-04-21T07:35:31;28.42;;;18.17;;
22026;SDS011;11177;50.966;10.070;2023-04-21T07:37:57;27.80;;;17.52;;
22026;SDS011;11177;50.966;10.070;2023-04-21T07:40:24;26.48;;;17.55;;
22026;SDS011;11177;50.966;10.070;2023-04-21T07:42:51;26.58;;;17.98;;
22026;SDS011;11177;50.966;10.070;2023-04-21T07:45:18;28.17;;;18.17;;
22026;SDS011;11177;50.966;10.070;2023-04-21T07:47:45;28.90;;;17.90;;
22026;SDS011;11177;50.966;10.070;2023-04-21T07:50:12;30.48;;;17.65;;
22026;SDS011;11177;50.966;10.070;2023-04-21T07:52:39;26.75;;;17.50;;
22026;SDS011;11177;50.966;10.070;2023-04-21T07:55:06;26.63;;;17.00;;
22026;SDS011;11177;50.966;10.070;2023-04-21T07:57:33;25.90;;;17.25;;
22026;SDS011;11177;50.966;10.070;2023-04-21T08:00:05;28.08;;;17.50;;
22026;SDS011;11177;50.966;10.070;2023-04-21T08:02:32;29.70;;;17.98;;
22026;SDS011;11177;50.966;10.070;2023-04-21T08:04:59;27.92;;;15.85;;
22026;SDS011;11177;50.966;10.070;2023-04-21T08:07:26;25.73;;;16.45;;
22026;SDS011;11177;50.966;10.070;2023-04-21T08:09:53;24.92;;;15.30;;
22026;SDS011;11177;50.966;10.070;2023-04-21T08:12:20;27.23;;;15.98;;
22026;SDS011;11177;50.966;10.070;2023-04-21T08:14:46;25.38;;;16.00;;
22026;SDS011;11177;50.966;10.070;2023-04-21T08:17:13;28.27;;;15.98;;
22026;SDS011;11177;50.966;10.070;2023-04-21T08:19:41;25.75;;;16.25;;
22026;SDS011;11177;50.966;10.070;2023-04-21T08:22:08;24.52;;;15.38;;
22026;SDS011;11177;50.966;10.070;2023-04-21T08:24:35;26.55;;;15.25;;
22026;SDS011;11177;50.966;10.070;2023-04-21T08:27:02;25.48;;;16.27;;
22026;SDS011;11177;50.966;10.070;2023-04-21T08:29:29;24.30;;;16.58;;
22026;SDS011;11177;50.966;10.070;2023-04-21T08:31:56;24.55;;;16.10;;
22026;SDS011;11177;50.966;10.070;2023-04-21T08:34:22;27.73;;;16.42;;
22026;SDS011;11177;50.966;10.070;2023-04-21T08:36:53;26.80;;;16.20;;
22026;SDS011;11177;50.966;10.070;2023-04-21T08:39:20;26.58;;;15.73;;
22026;SDS011;11177;50.966;10.070;2023-04-21T08:41:47;29.95;;;16.40;;
22026;SDS011;11177;50.966;10.070;2023-04-21T08:44:15;26.60;;;15.43;;
22026;SDS011;11177;50.966;10.070;2023-04-21T08:46:42;27.23;;;15.07;;
22026;SDS011;11177;50.966;10.070;2023-04-21T08:49:11;27.00;;;15.55;;
22026;SDS011;11177;50.966;10.070;2023-04-21T08:51:38;22.50;;;14.40;;
22026;SDS011;11177;50.966;10.070;2023-04-21T08:54:05;27.55;;;16.38;;
22026;SDS011;11177;50.966;10.070;2023-04-21T08:56:32;26.85;;;15.63;;
22026;SDS011;11177;50.966;10.070;2023-04-21T08:58:59;26.25;;;15.32;;
22026;SDS011;11177;50.966;10.070;2023-04-21T09:01:26;25.70;;;14.93;;
22026;SDS011;11177;50.966;10.070;2023-04-21T09:03:53;25.80;;;15.60;;
22026;SDS011;11177;50.966;10.070;2023-04-21T09:06:20;21.75;;;14.52;;
22026;SDS011;11177;50.966;10.070;2023-04-21T09:08:52;22.13;;;14.60;;
22026;SDS011;11177;50.966;10.070;2023-04-21T09:11:21;21.98;;;14.60;;
22026;SDS011;11177;50.966;10.070;2023-04-21T09:13:48;25.60;;;15.27;;
22026;SDS011;11177;50.966;10.070;2023-04-21T09:16:16;24.38;;;14.57;;
22026;SDS011;11177;50.966;10.070;2023-04-21T09:18:47;25.90;;;14.50;;
22026;SDS011;11177;50.966;10.070;2023-04-21T09:21:16;22.80;;;14.43;;
22026;SDS011;11177;50.966;10.070;2023-04-21T09:23:48;21.70;;;13.60;;
22026;SDS011;11177;50.966;10.070;2023-04-21T09:26:17;20.85;;;14.05;;
22026;SDS011;11177;50.966;10.070;2023-04-21T09:28:47;19.30;;;13.52;;
22026;SDS011;11177;50.966;10.070;2023-04-21T09:31:16;23.40;;;13.13;;
22026;SDS011;11177;50.966;10.070;2023-04-21T09:33:56;22.33;;;12.70;;
22026;SDS011;11177;50.966;10.070;2023-04-21T09:36:27;21.88;;;12.80;;
22026;SDS011;11177;50.966;10.070;2023-04-21T09:38:59;18.38;;;12.68;;
22026;SDS011;11177;50.966;10.070;2023-04-21T09:41:30;21.70;;;12.70;;
22026;SDS011;11177;50.966;10.070;2023-04-21T09:43:58;20.85;;;12.88;;
22026;SDS011;11177;50.966;10.070;2023-04-21T09:46:27;22.17;;;12.55;;
22026;SDS011;11177;50.966;10.070;2023-04-21T09:48:55;17.83;;;12.30;;
22026;SDS011;11177;50.966;10.070;2023-04-21T09:51:22;22.67;;;12.40;;
22026;SDS011;11177;50.966;10.070;2023-04-21T09:54:18;20.33;;;12.32;;
22026;SDS011;11177;50.966;10.070;2023-04-21T09:56:52;16.88;;;12.00;;
22026;SDS011;11177;50.966;10.070;2023-04-21T09:59:35;23.65;;;12.93;;
22026;SDS011;11177;50.966;10.070;2023-04-21T10:02:04;21.10;;;12.73;;
22026;SDS011;11177;50.966;10.070;2023-04-21T10:04:33;19.77;;;12.40;;
22026;SDS011;11177;50.966;10.070;2023-04-21T10:07:02;22.15;;;12.73;;
22026;SDS011;11177;50.966;10.070;2023-04-21T10:09:34;21.95;;;13.40;;
22026;SDS011;11177;50.966;10.070;2023-04-21T10:12:05;19.92;;;12.18;;
22026;SDS011;11177;50.966;10.070;2023-04-21T10:14:34;18.05;;;11.13;;
22026;SDS011;11177;50.966;10.070;2023-04-21T10:17:03;21.63;;;12.38;;
22026;SDS011;11177;50.966;10.070;2023-04-21T10:19:32;16.42;;;11.18;;
22026;SDS011;11177;50.966;10.070;2023-04-21T10:22:05;15.82;;;11.32;;
22026;SDS011;11177;50.966;10.070;2023-04-21T10:24:37;17.73;;;11.13;;
22026;SDS011;11177;50.966;10.070;2023-04-21T10:27:08;16.77;;;10.50;;
22026;SDS011;11177;50.966;10.070;2023-04-21T10:29:37;21.73;;;10.57;;
22026;SDS011;11177;50.966;10.070;2023-04-21T10:32:40;14.75;;;10.02;;
22026;SDS011;11177;50.966;10.070;2023-04-21T10:35:09;16.00;;;9.40;;
22026;SDS011;11177;50.966;10.070;2023-04-21T10:37:47;17.83;;;10.00;;
22026;SDS011;11177;50.966;10.070;2023-04-21T10:40:34;16.55;;;9.68;;
22026;SDS011;11177;50.966;10.070;2023-04-21T10:49:04;17.85;;;10.23;;
22026;SDS011;11177;50.966;10.070;2023-04-21T10:51:32;15.55;;;8.55;;
22026;SDS011;11177;50.966;10.070;2023-04-21T10:54:21;13.82;;;8.27;;
22026;SDS011;11177;50.966;10.070;2023-04-21T10:56:48;14.45;;;8.18;;
22026;SDS011;11177;50.966;10.070;2023-04-21T10:59:18;13.18;;;8.32;;
22026;SDS011;11177;50.966;10.070;2023-04-21T11:01:45;11.10;;;7.40;;
22026;SDS011;11177;50.966;10.070;2023-04-21T11:04:15;11.23;;;7.57;;
22026;SDS011;11177;50.966;10.070;2023-04-21T11:06:53;13.32;;;7.38;;
22026;SDS011;11177;50.966;10.070;2023-04-21T11:09:34;13.48;;;7.10;;
22026;SDS011;11177;50.966;10.070;2023-04-21T11:12:08;12.80;;;7.22;;
22026;SDS011;11177;50.966;10.070;2023-04-21T11:14:38;10.63;;;7.07;;
22026;SDS011;11177;50.966;10.070;2023-04-21T11:17:11;13.55;;;7.05;;
22026;SDS011;11177;50.966;10.070;2023-04-21T11:19:39;10.73;;;6.32;;
22026;SDS011;11177;50.966;10.070;2023-04-21T11:22:06;7.93;;;6.13;;
22026;SDS011;11177;50.966;10.070;2023-04-21T11:24:33;7.82;;;5.72;;
22026;SDS011;11177;50.966;10.070;2023-04-21T11:27:00;8.75;;;6.45;;
22026;SDS011;11177;50.966;10.070;2023-04-21T11:29:28;9.25;;;5.72;;
22026;SDS011;11177;50.966;10.070;2023-04-21T11:31:55;8.27;;;5.43;;
22026;SDS011;11177;50.966;10.070;2023-04-21T11:34:22;8.40;;;5.45;;
22026;SDS011;11177;50.966;10.070;2023-04-21T11:36:50;10.25;;;6.00;;
22026;SDS011;11177;50.966;10.070;2023-04-21T11:39:19;9.88;;;5.85;;
22026;SDS011;11177;50.966;10.070;2023-04-21T11:41:48;9.18;;;5.28;;
22026;SDS011;11177;50.966;10.070;2023-04-21T11:44:32;8.93;;;6.00;;
22026;SDS011;11177;50.966;10.070;2023-04-21T11:47:17;9.35;;;5.22;;
22026;SDS011;11177;50.966;10.070;2023-04-21T11:52:20;7.25;;;5.00;;
22026;SDS011;11177;50.966;10.070;2023-04-21T11:54:58;11.82;;;5.30;;
22026;SDS011;11177;50.966;10.070;2023-04-21T11:57:38;7.43;;;5.50;;
22026;SDS011;11177;50.966;10.070;2023-04-21T12:00:07;7.43;;;5.30;;
22026;SDS011;11177;50.966;10.070;2023-04-21T12:02:38;7.35;;;5.18;;
22026;SDS011;11177;50.966;10.070;2023-04-21T12:05:09;9.65;;;5.90;;
22026;SDS011;11177;50.966;10.070;2023-04-21T12:07:40;9.00;;;5.72;;
22026;SDS011;11177;50.966;10.070;2023-04-21T12:10:09;8.88;;;5.93;;
22026;SDS011;11177;50.966;10.070;2023-04-21T12:12:37;10.80;;;5.75;;
22026;SDS011;11177;50.966;10.070;2023-04-21T12:15:05;10.32;;;6.43;;
22026;SDS011;11177;50.966;10.070;2023-04-21T12:17:35;12.40;;;6.22;;
22026;SDS011;11177;50.966;10.070;2023-04-21T12:20:06;11.15;;;6.28;;
22026;SDS011;11177;50.966;10.070;2023-04-21T12:22:34;13.85;;;6.47;;
22026;SDS011;11177;50.966;10.070;2023-04-21T12:25:03;10.70;;;5.72;;
22026;SDS011;11177;50.966;10.070;2023-04-21T12:27:31;11.43;;;5.63;;
22026;SDS011;11177;50.966;10.070;2023-04-21T12:29:58;10.88;;;5.85;;
22026;SDS011;11177;50.966;10.070;2023-04-21T12:32:25;8.32;;;5.70;;
22026;SDS011;11177;50.966;10.070;2023-04-21T12:34:52;7.60;;;5.40;;
22026;SDS011;11177;50.966;10.070;2023-04-21T12:37:19;9.43;;;5.22;;
22026;SDS011;11177;50.966;10.070;2023-04-21T12:39:46;9.40;;;5.30;;
22026;SDS011;11177;50.966;10.070;2023-04-21T12:42:13;9.73;;;5.13;;
22026;SDS011;11177;50.966;10.070;2023-04-21T12:44:40;8.07;;;4.95;;
22026;SDS011;11177;50.966;10.070;2023-04-21T12:47:07;7.85;;;5.15;;
22026;SDS011;11177;50.966;10.070;2023-04-21T12:49:33;10.73;;;5.10;;
22026;SDS011;11177;50.966;10.070;2023-04-21T12:52:01;10.82;;;5.22;;
22026;SDS011;11177;50.966;10.070;2023-04-21T12:54:30;12.98;;;5.50;;
22026;SDS011;11177;50.966;10.070;2023-04-21T12:56:57;8.40;;;4.80;;
22026;SDS011;11177;50.966;10.070;2023-04-21T12:59:24;8.80;;;5.03;;
22026;SDS011;11177;50.966;10.070;2023-04-21T13:01:51;8.18;;;4.95;;
22026;SDS011;11177;50.966;10.070;2023-04-21T13:04:20;11.80;;;5.20;;
22026;SDS011;11177;50.966;10.070;2023-04-21T13:06:47;15.18;;;5.43;;
22026;SDS011;11177;50.966;10.070;2023-04-21T13:09:15;7.47;;;4.72;;
22026;SDS011;11177;50.966;10.070;2023-04-21T13:11:42;9.48;;;5.35;;
22026;SDS011;11177;50.966;10.070;2023-04-21T13:14:09;8.80;;;5.20;;
22026;SDS011;11177;50.966;10.070;2023-04-21T13:16:36;7.22;;;4.60;;
22026;SDS011;11177;50.966;10.070;2023-04-21T13:19:03;10.65;;;5.20;;
22026;SDS011;11177;50.966;10.070;2023-04-21T13:21:30;6.85;;;4.60;;
22026;SDS011;11177;50.966;10.070;2023-04-21T13:23:58;7.82;;;4.53;;
22026;SDS011;11177;50.966;10.070;2023-04-21T13:26:25;12.18;;;4.40;;
22026;SDS011;11177;50.966;10.070;2023-04-21T13:28:53;5.28;;;4.15;;
22026;SDS011;11177;50.966;10.070;2023-04-21T13:31:20;8.38;;;4.38;;
22026;SDS011;11177;50.966;10.070;2023-04-21T13:33:47;7.28;;;4.45;;
22026;SDS011;11177;50.966;10.070;2023-04-21T13:36:15;6.93;;;4.50;;
22026;SDS011;11177;50.966;10.070;2023-04-21T13:38:42;6.10;;;3.80;;
22026;SDS011;11177;50.966;10.070;2023-04-21T13:41:09;9.45;;;4.45;;
22026;SDS011;11177;50.966;10.070;2023-04-21T13:43:37;7.05;;;4.25;;
22026;SDS011;11177;50.966;10.070;2023-04-21T13:46:04;5.85;;;4.20;;
22026;SDS011;11177;50.966;10.070;2023-04-21T13:48:31;5.80;;;4.10;;
22026;SDS011;11177;50.966;10.070;2023-04-21T13:50:58;6.30;;;4.05;;
22026;SDS011;11177;50.966;10.070;2023-04-21T13:53:25;9.85;;;4.18;;
22026;SDS011;11177;50.966;10.070;2023-04-21T13:55:52;5.85;;;4.25;;
22026;SDS011;11177;50.966;10.070;2023-04-21T13:58:23;6.50;;;3.70;;
22026;SDS011;11177;50.966;10.070;2023-04-21T14:00:49;6.00;;;3.80;;
22026;SDS011;11177;50.966;10.070;2023-04-21T14:03:16;5.22;;;3.50;;
22026;SDS011;11177;50.966;10.070;2023-04-21T14:05:44;8.77;;;3.75;;
22026;SDS011;11177;50.966;10.070;2023-04-21T14:08:11;6.47;;;4.15;;
22026;SDS011;11177;50.966;10.070;2023-04-21T14:10:38;5.15;;;3.45;;
22026;SDS011;11177;50.966;10.070;2023-04-21T14:13:05;5.80;;;3.28;;
22026;SDS011;11177;50.966;10.070;2023-04-21T14:15:32;4.15;;;3.13;;
22026;SDS011;11177;50.966;10.070;2023-04-21T14:17:59;9.27;;;3.10;;
22026;SDS011;11177;50.966;10.070;2023-04-21T14:20:26;3.65;;;3.08;;
22026;SDS011;11177;50.966;10.070;2023-04-21T14:22:53;4.78;;;3.28;;
22026;SDS011;11177;50.966;10.070;2023-04-21T14:25:20;4.00;;;3.20;;
22026;SDS011;11177;50.966;10.070;2023-04-21T14:27:48;4.22;;;2.85;;
22026;SDS011;11177;50.966;10.070;2023-04-21T14:30:14;6.05;;;3.20;;